sensor_id;sensor_type;location;lat;lon;timestamp;P1;durP1;ratioP1;P2;durP2;ratioP2
6145;SDS011;3104;50.348;7.620;2023-05-10T00:01:07;0.90;;;0.90;;
6145;SDS011;3104;50.348;7.620;2023-05-10T00:03:32;1.83;;;0.90;;
6145;SDS011;3104;50.348;7.620;2023-05-10T00:05:58;1.57;;;1.00;;
6145;SDS011;3104;50.348;7.620;2023-05-10T00:08:23;1.27;;;0.90;;
6145;SDS011;3104;50.348;7.620;2023-05-10T00:10:49;1.17;;;0.70;;
6145;SDS011;3104;50.348;7.620;2023-05-10T00:13:14;0.80;;;0.80;;
6145;SDS011;3104;50.348;7.620;2023-05-10T00:15:40;1.33;;;0.93;;
6145;SDS011;3104;50.348;7.620;2023-05-10T00:18:06;0.70;;;0.70;;
6145;SDS011;3104;50.348;7.620;2023-05-10T00:20:31;1.13;;;0.97;;
6145;SDS011;3104;50.348;7.620;2023-05-10T00:22:57;1.63;;;1.27;;
6145;SDS011;3104;50.348;7.620;2023-05-10T00:25:22;1.50;;;0.90;;
6145;SDS011;3104;50.348;7.620;2023-05-10T00:27:48;0.70;;;0.70;;
6145;SDS011;3104;50.348;7.620;2023-05-10T00:30:14;0.90;;;0.80;;
6145;SDS011;3104;50.348;7.620;2023-05-10T00:32:40;1.53;;;0.80;;
6145;SDS011;3104;50.348;7.620;2023-05-10T00:35:06;1.17;;;0.70;;
6145;SDS011;3104;50.348;7.620;2023-05-10T00:37:32;0.77;;;0.77;;
6145;SDS011;3104;50.348;7.620;2023-05-10T00:39:58;2.33;;;1.67;;
6145;SDS011;3104;50.348;7.620;2023-05-10T00:42:23;0.80;;;0.80;;
6145;SDS011;3104;50.348;7.620;2023-05-10T00:44:49;1.27;;;0.60;;
6145;SDS011;3104;50.348;7.620;2023-05-10T00:47:15;0.77;;;0.77;;
6145;SDS011;3104;50.348;7.620;2023-05-10T00:49:41;0.77;;;0.77;;
6145;SDS011;3104;50.348;7.620;2023-05-10T00:52:08;1.17;;;0.90;;
6145;SDS011;3104;50.348;7.620;2023-05-10T00:54:34;0.70;;;0.70;;
6145;SDS011;3104;50.348;7.620;2023-05-10T00:57:00;1.60;;;1.00;;
6145;SDS011;3104;50.348;7.620;2023-05-10T00:59:26;0.60;;;0.60;;
6145;SDS011;3104;50.348;7.620;2023-05-10T01:01:52;2.33;;;0.77;;
6145;SDS011;3104;50.348;7.620;2023-05-10T01:04:18;0.73;;;0.73;;
6145;SDS011;3104;50.348;7.620;2023-05-10T01:06:46;0.80;;;0.80;;
6145;SDS011;3104;50.348;7.620;2023-05-10T01:09:12;0.50;;;0.50;;
6145;SDS011;3104;50.348;7.620;2023-05-10T01:11:38;4.67;;;1.40;;
6145;SDS011;3104;50.348;7.620;2023-05-10T01:14:04;0.70;;;0.70;;
6145;SDS011;3104;50.348;7.620;2023-05-10T01:16:32;0.70;;;0.70;;
6145;SDS011;3104;50.348;7.620;2023-05-10T01:19:01;0.80;;;0.80;;
6145;SDS011;3104;50.348;7.620;2023-05-10T01:21:43;0.80;;;0.80;;
6145;SDS011;3104;50.348;7.620;2023-05-10T01:33:01;1.00;;;0.90;;
6145;SDS011;3104;50.348;7.620;2023-05-10T01:38:39;0.70;;;0.70;;
6145;SDS011;3104;50.348;7.620;2023-05-10T01:43:37;0.70;;;0.70;;
6145;SDS011;3104;50.348;7.620;2023-05-10T01:46:21;3.60;;;0.77;;
6145;SDS011;3104;50.348;7.620;2023-05-10T01:48:52;1.00;;;0.90;;
6145;SDS011;3104;50.348;7.620;2023-05-10T01:51:24;0.60;;;0.60;;
6145;SDS011;3104;50.348;7.620;2023-05-10T01:53:54;0.70;;;0.70;;
6145;SDS011;3104;50.348;7.620;2023-05-10T01:56:26;1.50;;;0.80;;
6145;SDS011;3104;50.348;7.620;2023-05-10T01:58:55;0.90;;;0.90;;
6145;SDS011;3104;50.348;7.620;2023-05-10T02:01:22;1.00;;;1.00;;
6145;SDS011;3104;50.348;7.620;2023-05-10T02:03:51;1.30;;;0.80;;
6145;SDS011;3104;50.348;7.620;2023-05-10T02:06:18;1.23;;;1.10;;
6145;SDS011;3104;50.348;7.620;2023-05-10T02:08:46;1.30;;;1.20;;
6145;SDS011;3104;50.348;7.620;2023-05-10T02:11:14;1.07;;;1.03;;
6145;SDS011;3104;50.348;7.620;2023-05-10T02:13:40;0.80;;;0.80;;
6145;SDS011;3104;50.348;7.620;2023-05-10T02:16:07;0.80;;;0.80;;
6145;SDS011;3104;50.348;7.620;2023-05-10T02:18:33;0.90;;;0.90;;
6145;SDS011;3104;50.348;7.620;2023-05-10T02:21:01;0.80;;;0.80;;
6145;SDS011;3104;50.348;7.620;2023-05-10T02:23:27;0.77;;;0.77;;
6145;SDS011;3104;50.348;7.620;2023-05-10T02:25:54;0.73;;;0.73;;
6145;SDS011;3104;50.348;7.620;2023-05-10T02:28:23;0.70;;;0.70;;
6145;SDS011;3104;50.348;7.620;2023-05-10T02:30:50;1.27;;;0.90;;
6145;SDS011;3104;50.348;7.620;2023-05-10T02:33:17;1.10;;;1.00;;
6145;SDS011;3104;50.348;7.620;2023-05-10T02:35:43;1.40;;;1.30;;
6145;SDS011;3104;50.348;7.620;2023-05-10T02:38:09;1.40;;;1.30;;
6145;SDS011;3104;50.348;7.620;2023-05-10T02:40:36;1.57;;;1.47;;
6145;SDS011;3104;50.348;7.620;2023-05-10T02:43:03;1.60;;;1.50;;
6145;SDS011;3104;50.348;7.620;2023-05-10T02:45:31;3.43;;;1.50;;
6145;SDS011;3104;50.348;7.620;2023-05-10T02:47:59;2.10;;;1.50;;
6145;SDS011;3104;50.348;7.620;2023-05-10T02:50:28;2.97;;;1.40;;
6145;SDS011;3104;50.348;7.620;2023-05-10T02:52:59;1.30;;;1.20;;
6145;SDS011;3104;50.348;7.620;2023-05-10T02:55:31;1.60;;;1.50;;
6145;SDS011;3104;50.348;7.620;2023-05-10T02:58:00;1.30;;;1.30;;
6145;SDS011;3104;50.348;7.620;2023-05-10T03:00:27;1.47;;;1.37;;
6145;SDS011;3104;50.348;7.620;2023-05-10T03:02:53;1.37;;;1.27;;
6145;SDS011;3104;50.348;7.620;2023-05-10T03:05:19;3.37;;;1.70;;
6145;SDS011;3104;50.348;7.620;2023-05-10T03:07:45;1.70;;;1.60;;
6145;SDS011;3104;50.348;7.620;2023-05-10T03:10:11;3.30;;;1.80;;
6145;SDS011;3104;50.348;7.620;2023-05-10T03:18:12;2.37;;;2.20;;
6145;SDS011;3104;50.348;7.620;2023-05-10T03:20:42;3.63;;;2.80;;
6145;SDS011;3104;50.348;7.620;2023-05-10T03:23:13;2.63;;;2.40;;
6145;SDS011;3104;50.348;7.620;2023-05-10T03:25:46;3.10;;;2.10;;
6145;SDS011;3104;50.348;7.620;2023-05-10T03:28:14;1.90;;;1.80;;
6145;SDS011;3104;50.348;7.620;2023-05-10T03:30:41;2.60;;;2.40;;
6145;SDS011;3104;50.348;7.620;2023-05-10T03:33:08;2.80;;;2.67;;
6145;SDS011;3104;50.348;7.620;2023-05-10T03:35:33;2.40;;;2.20;;
6145;SDS011;3104;50.348;7.620;2023-05-10T03:37:59;2.50;;;2.30;;
6145;SDS011;3104;50.348;7.620;2023-05-10T03:40:25;2.60;;;2.50;;
6145;SDS011;3104;50.348;7.620;2023-05-10T03:42:53;4.60;;;3.83;;
6145;SDS011;3104;50.348;7.620;2023-05-10T03:45:19;3.00;;;2.80;;
6145;SDS011;3104;50.348;7.620;2023-05-10T03:47:45;2.87;;;2.67;;
6145;SDS011;3104;50.348;7.620;2023-05-10T03:50:10;3.00;;;2.80;;
6145;SDS011;3104;50.348;7.620;2023-05-10T03:52:36;2.73;;;2.57;;
6145;SDS011;3104;50.348;7.620;2023-05-10T03:55:04;3.23;;;2.93;;
6145;SDS011;3104;50.348;7.620;2023-05-10T03:57:30;5.63;;;2.90;;
6145;SDS011;3104;50.348;7.620;2023-05-10T03:59:55;3.67;;;2.80;;
6145;SDS011;3104;50.348;7.620;2023-05-10T04:02:21;4.00;;;3.60;;
6145;SDS011;3104;50.348;7.620;2023-05-10T04:04:47;2.97;;;2.60;;
6145;SDS011;3104;50.348;7.620;2023-05-10T04:07:13;6.03;;;3.40;;
6145;SDS011;3104;50.348;7.620;2023-05-10T04:09:38;7.17;;;6.47;;
6145;SDS011;3104;50.348;7.620;2023-05-10T04:12:04;2.97;;;2.73;;
6145;SDS011;3104;50.348;7.620;2023-05-10T04:14:30;3.50;;;3.20;;
6145;SDS011;3104;50.348;7.620;2023-05-10T04:16:56;3.03;;;2.73;;
6145;SDS011;3104;50.348;7.620;2023-05-10T04:19:21;3.00;;;2.80;;
6145;SDS011;3104;50.348;7.620;2023-05-10T04:21:47;4.30;;;3.20;;
6145;SDS011;3104;50.348;7.620;2023-05-10T04:24:13;3.40;;;3.10;;
6145;SDS011;3104;50.348;7.620;2023-05-10T04:26:38;3.30;;;3.00;;
6145;SDS011;3104;50.348;7.620;2023-05-10T04:29:04;7.93;;;3.77;;
6145;SDS011;3104;50.348;7.620;2023-05-10T04:31:30;5.60;;;5.10;;
6145;SDS011;3104;50.348;7.620;2023-05-10T04:33:55;8.03;;;3.30;;
6145;SDS011;3104;50.348;7.620;2023-05-10T04:36:21;3.90;;;3.60;;
6145;SDS011;3104;50.348;7.620;2023-05-10T04:38:46;3.93;;;3.20;;
6145;SDS011;3104;50.348;7.620;2023-05-10T04:41:12;5.73;;;2.93;;
6145;SDS011;3104;50.348;7.620;2023-05-10T04:43:37;4.50;;;2.83;;
6145;SDS011;3104;50.348;7.620;2023-05-10T04:46:03;3.83;;;3.17;;
6145;SDS011;3104;50.348;7.620;2023-05-10T04:48:30;3.93;;;2.90;;
6145;SDS011;3104;50.348;7.620;2023-05-10T04:50:55;2.80;;;2.60;;
6145;SDS011;3104;50.348;7.620;2023-05-10T04:53:21;3.00;;;2.67;;
6145;SDS011;3104;50.348;7.620;2023-05-10T04:55:47;5.90;;;5.10;;
6145;SDS011;3104;50.348;7.620;2023-05-10T04:58:13;3.47;;;3.17;;
6145;SDS011;3104;50.348;7.620;2023-05-10T05:00:39;4.03;;;3.63;;
6145;SDS011;3104;50.348;7.620;2023-05-10T05:03:04;3.20;;;2.90;;
6145;SDS011;3104;50.348;7.620;2023-05-10T05:05:30;3.30;;;3.10;;
6145;SDS011;3104;50.348;7.620;2023-05-10T05:07:57;3.47;;;3.17;;
6145;SDS011;3104;50.348;7.620;2023-05-10T05:10:22;3.70;;;3.40;;
6145;SDS011;3104;50.348;7.620;2023-05-10T05:12:48;3.40;;;3.10;;
6145;SDS011;3104;50.348;7.620;2023-05-10T05:15:13;8.00;;;3.40;;
6145;SDS011;3104;50.348;7.620;2023-05-10T05:17:40;4.80;;;3.33;;
6145;SDS011;3104;50.348;7.620;2023-05-10T05:20:06;5.93;;;2.73;;
6145;SDS011;3104;50.348;7.620;2023-05-10T05:22:32;4.30;;;3.90;;
6145;SDS011;3104;50.348;7.620;2023-05-10T05:24:57;4.80;;;3.13;;
6145;SDS011;3104;50.348;7.620;2023-05-10T05:27:23;4.43;;;2.70;;
6145;SDS011;3104;50.348;7.620;2023-05-10T05:29:53;2.90;;;2.47;;
6145;SDS011;3104;50.348;7.620;2023-05-10T05:32:19;4.07;;;2.23;;
6145;SDS011;3104;50.348;7.620;2023-05-10T05:34:45;4.00;;;2.37;;
6145;SDS011;3104;50.348;7.620;2023-05-10T05:37:14;2.90;;;2.60;;
6145;SDS011;3104;50.348;7.620;2023-05-10T05:39:41;4.50;;;2.83;;
6145;SDS011;3104;50.348;7.620;2023-05-10T05:42:08;3.20;;;3.00;;
6145;SDS011;3104;50.348;7.620;2023-05-10T05:44:34;2.60;;;2.37;;
6145;SDS011;3104;50.348;7.620;2023-05-10T05:46:59;3.80;;;3.43;;
6145;SDS011;3104;50.348;7.620;2023-05-10T05:49:25;3.23;;;2.37;;
6145;SDS011;3104;50.348;7.620;2023-05-10T05:51:51;4.50;;;2.33;;
6145;SDS011;3104;50.348;7.620;2023-05-10T05:54:16;2.77;;;2.57;;
6145;SDS011;3104;50.348;7.620;2023-05-10T05:56:42;3.37;;;2.73;;
6145;SDS011;3104;50.348;7.620;2023-05-10T05:59:09;2.73;;;2.53;;
6145;SDS011;3104;50.348;7.620;2023-05-10T06:01:35;2.10;;;2.00;;
6145;SDS011;3104;50.348;7.620;2023-05-10T06:04:00;2.30;;;2.20;;
6145;SDS011;3104;50.348;7.620;2023-05-10T06:06:26;6.67;;;2.30;;
6145;SDS011;3104;50.348;7.620;2023-05-10T06:08:52;2.60;;;2.30;;
6145;SDS011;3104;50.348;7.620;2023-05-10T06:11:18;7.00;;;4.43;;
6145;SDS011;3104;50.348;7.620;2023-05-10T06:13:43;2.40;;;2.20;;
6145;SDS011;3104;50.348;7.620;2023-05-10T06:16:09;3.73;;;2.03;;
6145;SDS011;3104;50.348;7.620;2023-05-10T06:18:35;4.63;;;2.27;;
6145;SDS011;3104;50.348;7.620;2023-05-10T06:21:00;3.60;;;2.20;;
6145;SDS011;3104;50.348;7.620;2023-05-10T06:23:26;2.20;;;2.10;;
6145;SDS011;3104;50.348;7.620;2023-05-10T06:25:52;3.50;;;2.13;;
6145;SDS011;3104;50.348;7.620;2023-05-10T06:28:17;1.93;;;1.83;;
6145;SDS011;3104;50.348;7.620;2023-05-10T06:30:43;2.40;;;2.20;;
6145;SDS011;3104;50.348;7.620;2023-05-10T06:33:09;2.90;;;2.20;;
6145;SDS011;3104;50.348;7.620;2023-05-10T06:35:34;2.53;;;2.33;;
6145;SDS011;3104;50.348;7.620;2023-05-10T06:38:01;2.53;;;2.33;;
6145;SDS011;3104;50.348;7.620;2023-05-10T06:40:27;2.53;;;2.10;;
6145;SDS011;3104;50.348;7.620;2023-05-10T06:42:52;2.77;;;2.57;;
6145;SDS011;3104;50.348;7.620;2023-05-10T06:45:18;2.43;;;2.23;;
6145;SDS011;3104;50.348;7.620;2023-05-10T06:47:44;2.60;;;2.40;;
6145;SDS011;3104;50.348;7.620;2023-05-10T06:50:09;2.87;;;2.67;;
6145;SDS011;3104;50.348;7.620;2023-05-10T06:52:36;2.27;;;2.10;;
6145;SDS011;3104;50.348;7.620;2023-05-10T06:55:02;2.67;;;2.47;;
6145;SDS011;3104;50.348;7.620;2023-05-10T06:57:28;2.43;;;2.23;;
6145;SDS011;3104;50.348;7.620;2023-05-10T06:59:54;2.60;;;2.40;;
6145;SDS011;3104;50.348;7.620;2023-05-10T07:02:21;3.27;;;3.00;;
6145;SDS011;3104;50.348;7.620;2023-05-10T07:04:47;4.57;;;2.70;;
6145;SDS011;3104;50.348;7.620;2023-05-10T07:07:13;3.40;;;2.40;;
6145;SDS011;3104;50.348;7.620;2023-05-10T07:09:39;3.47;;;3.20;;
6145;SDS011;3104;50.348;7.620;2023-05-10T07:12:05;3.87;;;3.50;;
6145;SDS011;3104;50.348;7.620;2023-05-10T07:14:30;2.80;;;2.57;;
6145;SDS011;3104;50.348;7.620;2023-05-10T07:16:56;2.63;;;2.43;;
6145;SDS011;3104;50.348;7.620;2023-05-10T07:19:21;3.90;;;2.60;;
6145;SDS011;3104;50.348;7.620;2023-05-10T07:21:47;5.20;;;3.20;;
6145;SDS011;3104;50.348;7.620;2023-05-10T07:24:13;4.57;;;2.70;;
6145;SDS011;3104;50.348;7.620;2023-05-10T07:26:38;2.87;;;2.67;;
6145;SDS011;3104;50.348;7.620;2023-05-10T07:29:04;3.63;;;3.20;;
6145;SDS011;3104;50.348;7.620;2023-05-10T07:31:30;9.77;;;8.00;;
6145;SDS011;3104;50.348;7.620;2023-05-10T07:33:55;6.33;;;4.47;;
6145;SDS011;3104;50.348;7.620;2023-05-10T07:36:21;6.97;;;3.10;;
6145;SDS011;3104;50.348;7.620;2023-05-10T07:38:47;4.33;;;4.03;;
6145;SDS011;3104;50.348;7.620;2023-05-10T07:41:12;2.90;;;2.70;;
6145;SDS011;3104;50.348;7.620;2023-05-10T07:43:38;4.27;;;3.00;;
6145;SDS011;3104;50.348;7.620;2023-05-10T07:46:03;4.53;;;2.80;;
6145;SDS011;3104;50.348;7.620;2023-05-10T07:48:30;2.80;;;2.60;;
6145;SDS011;3104;50.348;7.620;2023-05-10T07:50:56;3.87;;;3.57;;
6145;SDS011;3104;50.348;7.620;2023-05-10T07:53:21;3.77;;;3.07;;
6145;SDS011;3104;50.348;7.620;2023-05-10T07:55:50;2.63;;;2.43;;
6145;SDS011;3104;50.348;7.620;2023-05-10T07:58:16;4.10;;;3.20;;
6145;SDS011;3104;50.348;7.620;2023-05-10T08:00:42;10.70;;;6.70;;
6145;SDS011;3104;50.348;7.620;2023-05-10T08:03:07;4.00;;;2.67;;
6145;SDS011;3104;50.348;7.620;2023-05-10T08:05:33;4.53;;;3.40;;
6145;SDS011;3104;50.348;7.620;2023-05-10T08:07:59;4.43;;;3.17;;
6145;SDS011;3104;50.348;7.620;2023-05-10T08:10:24;3.13;;;2.70;;
6145;SDS011;3104;50.348;7.620;2023-05-10T08:12:50;4.00;;;3.70;;
6145;SDS011;3104;50.348;7.620;2023-05-10T08:15:16;3.70;;;3.20;;
6145;SDS011;3104;50.348;7.620;2023-05-10T08:17:42;4.77;;;3.37;;
6145;SDS011;3104;50.348;7.620;2023-05-10T08:20:08;3.13;;;2.57;;
6145;SDS011;3104;50.348;7.620;2023-05-10T08:22:34;3.43;;;2.47;;
6145;SDS011;3104;50.348;7.620;2023-05-10T08:24:59;3.20;;;2.67;;
6145;SDS011;3104;50.348;7.620;2023-05-10T08:27:25;4.50;;;3.10;;
6145;SDS011;3104;50.348;7.620;2023-05-10T08:29:50;5.33;;;3.43;;
6145;SDS011;3104;50.348;7.620;2023-05-10T08:32:16;3.90;;;3.00;;
6145;SDS011;3104;50.348;7.620;2023-05-10T08:34:42;4.97;;;2.87;;
6145;SDS011;3104;50.348;7.620;2023-05-10T08:37:08;5.07;;;3.10;;
6145;SDS011;3104;50.348;7.620;2023-05-10T08:39:35;4.53;;;2.87;;
6145;SDS011;3104;50.348;7.620;2023-05-10T08:42:01;5.10;;;3.00;;
6145;SDS011;3104;50.348;7.620;2023-05-10T08:44:29;3.30;;;2.73;;
6145;SDS011;3104;50.348;7.620;2023-05-10T08:46:57;5.70;;;2.83;;
6145;SDS011;3104;50.348;7.620;2023-05-10T08:49:26;5.47;;;4.73;;
6145;SDS011;3104;50.348;7.620;2023-05-10T08:51:55;8.10;;;5.90;;
6145;SDS011;3104;50.348;7.620;2023-05-10T08:54:24;3.50;;;2.60;;
6145;SDS011;3104;50.348;7.620;2023-05-10T08:56:50;3.10;;;2.27;;
6145;SDS011;3104;50.348;7.620;2023-05-10T08:59:16;3.83;;;2.93;;
6145;SDS011;3104;50.348;7.620;2023-05-10T09:01:43;3.10;;;2.20;;
6145;SDS011;3104;50.348;7.620;2023-05-10T09:04:13;3.20;;;2.53;;
6145;SDS011;3104;50.348;7.620;2023-05-10T09:06:38;2.30;;;2.10;;
6145;SDS011;3104;50.348;7.620;2023-05-10T09:09:04;2.63;;;2.23;;
6145;SDS011;3104;50.348;7.620;2023-05-10T09:11:30;2.33;;;2.23;;
6145;SDS011;3104;50.348;7.620;2023-05-10T09:13:56;2.43;;;2.30;;
6145;SDS011;3104;50.348;7.620;2023-05-10T09:16:22;2.83;;;2.37;;
6145;SDS011;3104;50.348;7.620;2023-05-10T09:18:48;1.73;;;1.63;;
6145;SDS011;3104;50.348;7.620;2023-05-10T09:21:14;2.03;;;1.87;;
6145;SDS011;3104;50.348;7.620;2023-05-10T09:23:44;1.93;;;1.83;;
6145;SDS011;3104;50.348;7.620;2023-05-10T09:26:11;4.63;;;1.97;;
6145;SDS011;3104;50.348;7.620;2023-05-10T09:28:50;1.33;;;1.23;;
6145;SDS011;3104;50.348;7.620;2023-05-10T09:31:17;5.87;;;1.63;;
6145;SDS011;3104;50.348;7.620;2023-05-10T09:33:43;2.20;;;1.10;;
6145;SDS011;3104;50.348;7.620;2023-05-10T09:36:11;0.90;;;0.90;;
6145;SDS011;3104;50.348;7.620;2023-05-10T09:38:49;1.60;;;0.90;;
6145;SDS011;3104;50.348;7.620;2023-05-10T09:41:22;1.27;;;0.80;;
6145;SDS011;3104;50.348;7.620;2023-05-10T09:43:48;1.17;;;1.13;;
6145;SDS011;3104;50.348;7.620;2023-05-10T09:46:15;0.70;;;0.70;;
6145;SDS011;3104;50.348;7.620;2023-05-10T09:48:47;4.07;;;3.77;;
6145;SDS011;3104;50.348;7.620;2023-05-10T09:51:20;4.30;;;1.13;;
6145;SDS011;3104;50.348;7.620;2023-05-10T09:53:46;0.80;;;0.80;;
6145;SDS011;3104;50.348;7.620;2023-05-10T09:56:12;1.00;;;1.00;;
6145;SDS011;3104;50.348;7.620;2023-05-10T09:58:38;1.33;;;1.30;;
6145;SDS011;3104;50.348;7.620;2023-05-10T10:01:04;0.67;;;0.67;;
6145;SDS011;3104;50.348;7.620;2023-05-10T10:03:35;1.70;;;0.70;;
6145;SDS011;3104;50.348;7.620;2023-05-10T10:06:08;1.53;;;0.70;;
6145;SDS011;3104;50.348;7.620;2023-05-10T10:08:34;0.93;;;0.83;;
6145;SDS011;3104;50.348;7.620;2023-05-10T10:11:00;0.77;;;0.73;;
6145;SDS011;3104;50.348;7.620;2023-05-10T10:13:26;1.20;;;0.83;;
6145;SDS011;3104;50.348;7.620;2023-05-10T10:15:52;0.93;;;0.93;;
6145;SDS011;3104;50.348;7.620;2023-05-10T10:18:19;0.93;;;0.93;;
6145;SDS011;3104;50.348;7.620;2023-05-10T10:20:48;3.07;;;1.10;;
6145;SDS011;3104;50.348;7.620;2023-05-10T10:23:14;2.97;;;2.80;;
6145;SDS011;3104;50.348;7.620;2023-05-10T10:25:40;2.77;;;0.80;;
6145;SDS011;3104;50.348;7.620;2023-05-10T10:30:49;2.40;;;1.27;;
6145;SDS011;3104;50.348;7.620;2023-05-10T10:33:24;1.43;;;0.90;;
6145;SDS011;3104;50.348;7.620;2023-05-10T10:36:00;2.30;;;1.17;;
6145;SDS011;3104;50.348;7.620;2023-05-10T10:38:37;1.50;;;1.00;;
6145;SDS011;3104;50.348;7.620;2023-05-10T10:41:26;1.07;;;0.70;;
6145;SDS011;3104;50.348;7.620;2023-05-10T10:52:33;1.10;;;1.10;;
6145;SDS011;3104;50.348;7.620;2023-05-10T11:02:56;1.20;;;1.10;;
6145;SDS011;3104;50.348;7.620;2023-05-10T11:07:57;1.17;;;1.00;;
6145;SDS011;3104;50.348;7.620;2023-05-10T11:10:24;2.30;;;0.90;;
6145;SDS011;3104;50.348;7.620;2023-05-10T11:13:12;2.80;;;1.10;;
6145;SDS011;3104;50.348;7.620;2023-05-10T11:15:37;0.90;;;0.90;;
6145;SDS011;3104;50.348;7.620;2023-05-10T11:18:23;0.80;;;0.80;;
6145;SDS011;3104;50.348;7.620;2023-05-10T11:20:57;1.07;;;0.97;;
6145;SDS011;3104;50.348;7.620;2023-05-10T11:23:51;2.23;;;2.03;;
6145;SDS011;3104;50.348;7.620;2023-05-10T11:26:23;1.57;;;0.97;;
6145;SDS011;3104;50.348;7.620;2023-05-10T11:28:51;0.93;;;0.80;;
6145;SDS011;3104;50.348;7.620;2023-05-10T11:31:20;0.80;;;0.80;;
6145;SDS011;3104;50.348;7.620;2023-05-10T11:36:16;1.07;;;0.83;;
6145;SDS011;3104;50.348;7.620;2023-05-10T11:38:46;1.13;;;0.90;;
6145;SDS011;3104;50.348;7.620;2023-05-10T11:41:12;0.80;;;0.80;;
6145;SDS011;3104;50.348;7.620;2023-05-10T11:43:38;0.90;;;0.90;;
6145;SDS011;3104;50.348;7.620;2023-05-10T11:46:08;0.80;;;0.80;;
6145;SDS011;3104;50.348;7.620;2023-05-10T11:48:36;2.40;;;1.00;;
6145;SDS011;3104;50.348;7.620;2023-05-10T11:51:03;0.70;;;0.70;;
6145;SDS011;3104;50.348;7.620;2023-05-10T11:53:29;0.80;;;0.77;;
6145;SDS011;3104;50.348;7.620;2023-05-10T11:56:02;0.80;;;0.70;;
6145;SDS011;3104;50.348;7.620;2023-05-10T11:58:28;1.40;;;1.37;;
6145;SDS011;3104;50.348;7.620;2023-05-10T12:00:55;0.80;;;0.80;;
6145;SDS011;3104;50.348;7.620;2023-05-10T12:03:21;0.70;;;0.70;;
6145;SDS011;3104;50.348;7.620;2023-05-10T12:05:46;1.03;;;0.80;;
6145;SDS011;3104;50.348;7.620;2023-05-10T12:08:12;0.97;;;0.70;;
6145;SDS011;3104;50.348;7.620;2023-05-10T12:10:47;1.13;;;1.00;;
6145;SDS011;3104;50.348;7.620;2023-05-10T12:13:13;0.80;;;0.80;;
6145;SDS011;3104;50.348;7.620;2023-05-10T12:15:40;1.00;;;0.83;;
6145;SDS011;3104;50.348;7.620;2023-05-10T12:18:07;1.60;;;0.87;;
6145;SDS011;3104;50.348;7.620;2023-05-10T12:20:36;1.27;;;1.00;;
6145;SDS011;3104;50.348;7.620;2023-05-10T12:23:02;2.77;;;1.03;;
6145;SDS011;3104;50.348;7.620;2023-05-10T12:25:35;1.00;;;0.83;;
6145;SDS011;3104;50.348;7.620;2023-05-10T12:28:03;1.00;;;0.90;;
6145;SDS011;3104;50.348;7.620;2023-05-10T12:30:31;2.87;;;1.20;;
6145;SDS011;3104;50.348;7.620;2023-05-10T12:33:15;1.27;;;0.90;;
6145;SDS011;3104;50.348;7.620;2023-05-10T12:35:49;1.17;;;0.97;;
6145;SDS011;3104;50.348;7.620;2023-05-10T12:40:51;1.00;;;1.00;;
6145;SDS011;3104;50.348;7.620;2023-05-10T12:43:17;0.90;;;0.90;;
6145;SDS011;3104;50.348;7.620;2023-05-10T12:45:42;1.20;;;1.10;;
6145;SDS011;3104;50.348;7.620;2023-05-10T12:48:12;1.77;;;1.00;;
6145;SDS011;3104;50.348;7.620;2023-05-10T12:50:38;2.07;;;1.40;;
6145;SDS011;3104;50.348;7.620;2023-05-10T12:53:04;0.80;;;0.80;;
6145;SDS011;3104;50.348;7.620;2023-05-10T12:55:29;1.17;;;1.07;;
6145;SDS011;3104;50.348;7.620;2023-05-10T12:57:55;0.80;;;0.80;;
6145;SDS011;3104;50.348;7.620;2023-05-10T13:00:20;1.13;;;0.90;;
6145;SDS011;3104;50.348;7.620;2023-05-10T13:02:46;1.07;;;0.97;;
6145;SDS011;3104;50.348;7.620;2023-05-10T13:05:12;1.23;;;1.13;;
6145;SDS011;3104;50.348;7.620;2023-05-10T13:07:38;0.90;;;0.90;;
6145;SDS011;3104;50.348;7.620;2023-05-10T13:10:04;2.30;;;0.90;;
6145;SDS011;3104;50.348;7.620;2023-05-10T13:12:31;3.77;;;3.20;;
6145;SDS011;3104;50.348;7.620;2023-05-10T13:14:56;1.07;;;1.00;;
6145;SDS011;3104;50.348;7.620;2023-05-10T13:17:22;2.00;;;0.77;;
6145;SDS011;3104;50.348;7.620;2023-05-10T13:19:48;2.10;;;0.90;;
6145;SDS011;3104;50.348;7.620;2023-05-10T13:22:13;2.50;;;0.77;;
6145;SDS011;3104;50.348;7.620;2023-05-10T13:24:39;2.00;;;0.80;;
6145;SDS011;3104;50.348;7.620;2023-05-10T13:27:05;1.00;;;0.90;;
6145;SDS011;3104;50.348;7.620;2023-05-10T13:29:30;0.97;;;0.97;;
6145;SDS011;3104;50.348;7.620;2023-05-10T13:31:56;0.60;;;0.60;;
6145;SDS011;3104;50.348;7.620;2023-05-10T13:34:22;0.80;;;0.80;;
6145;SDS011;3104;50.348;7.620;2023-05-10T13:36:49;0.90;;;0.90;;
6145;SDS011;3104;50.348;7.620;2023-05-10T13:39:14;0.77;;;0.70;;
6145;SDS011;3104;50.348;7.620;2023-05-10T13:41:40;1.47;;;1.37;;
6145;SDS011;3104;50.348;7.620;2023-05-10T13:44:06;1.07;;;1.00;;
6145;SDS011;3104;50.348;7.620;2023-05-10T13:46:31;0.97;;;0.97;;
6145;SDS011;3104;50.348;7.620;2023-05-10T13:48:57;1.10;;;1.00;;
6145;SDS011;3104;50.348;7.620;2023-05-10T13:51:22;0.97;;;0.97;;
6145;SDS011;3104;50.348;7.620;2023-05-10T13:53:48;1.20;;;1.00;;
6145;SDS011;3104;50.348;7.620;2023-05-10T13:56:14;2.27;;;1.30;;
6145;SDS011;3104;50.348;7.620;2023-05-10T13:58:39;1.20;;;1.20;;
6145;SDS011;3104;50.348;7.620;2023-05-10T14:01:05;1.30;;;1.20;;
6145;SDS011;3104;50.348;7.620;2023-05-10T14:03:31;1.03;;;0.70;;
6145;SDS011;3104;50.348;7.620;2023-05-10T14:05:57;1.33;;;1.33;;
6145;SDS011;3104;50.348;7.620;2023-05-10T14:08:23;0.80;;;0.80;;
6145;SDS011;3104;50.348;7.620;2023-05-10T14:10:48;1.00;;;1.00;;
6145;SDS011;3104;50.348;7.620;2023-05-10T14:13:15;1.17;;;1.10;;
6145;SDS011;3104;50.348;7.620;2023-05-10T14:15:41;1.20;;;0.90;;
6145;SDS011;3104;50.348;7.620;2023-05-10T14:18:06;1.10;;;0.90;;
6145;SDS011;3104;50.348;7.620;2023-05-10T14:20:32;1.27;;;0.87;;
6145;SDS011;3104;50.348;7.620;2023-05-10T14:22:59;1.60;;;0.73;;
6145;SDS011;3104;50.348;7.620;2023-05-10T14:25:24;0.80;;;0.80;;
6145;SDS011;3104;50.348;7.620;2023-05-10T14:27:50;0.70;;;0.67;;
6145;SDS011;3104;50.348;7.620;2023-05-10T14:30:16;0.97;;;0.97;;
6145;SDS011;3104;50.348;7.620;2023-05-10T14:32:42;0.90;;;0.90;;
6145;SDS011;3104;50.348;7.620;2023-05-10T14:35:07;0.90;;;0.90;;
6145;SDS011;3104;50.348;7.620;2023-05-10T14:37:33;0.90;;;0.90;;
6145;SDS011;3104;50.348;7.620;2023-05-10T14:39:59;1.00;;;0.90;;
6145;SDS011;3104;50.348;7.620;2023-05-10T14:42:25;1.63;;;1.53;;
6145;SDS011;3104;50.348;7.620;2023-05-10T14:44:51;0.90;;;0.90;;
6145;SDS011;3104;50.348;7.620;2023-05-10T14:47:16;4.20;;;0.97;;
6145;SDS011;3104;50.348;7.620;2023-05-10T14:49:42;1.50;;;1.03;;
6145;SDS011;3104;50.348;7.620;2023-05-10T14:52:07;0.90;;;0.90;;
6145;SDS011;3104;50.348;7.620;2023-05-10T14:54:33;1.30;;;1.30;;
6145;SDS011;3104;50.348;7.620;2023-05-10T14:56:58;1.20;;;1.00;;
6145;SDS011;3104;50.348;7.620;2023-05-10T14:59:25;1.37;;;1.27;;
6145;SDS011;3104;50.348;7.620;2023-05-10T15:01:50;1.07;;;1.03;;
6145;SDS011;3104;50.348;7.620;2023-05-10T15:04:16;1.53;;;1.03;;
6145;SDS011;3104;50.348;7.620;2023-05-10T15:06:41;0.90;;;0.90;;
6145;SDS011;3104;50.348;7.620;2023-05-10T15:09:07;0.90;;;0.90;;
6145;SDS011;3104;50.348;7.620;2023-05-10T15:11:33;3.93;;;1.00;;
6145;SDS011;3104;50.348;7.620;2023-05-10T15:13:59;0.93;;;0.93;;
6145;SDS011;3104;50.348;7.620;2023-05-10T15:16:25;3.10;;;2.80;;
6145;SDS011;3104;50.348;7.620;2023-05-10T15:18:51;2.03;;;1.87;;
6145;SDS011;3104;50.348;7.620;2023-05-10T15:21:16;1.07;;;1.07;;
6145;SDS011;3104;50.348;7.620;2023-05-10T15:23:42;1.37;;;1.10;;
6145;SDS011;3104;50.348;7.620;2023-05-10T15:26:07;1.27;;;1.17;;
6145;SDS011;3104;50.348;7.620;2023-05-10T15:28:33;1.50;;;1.40;;
6145;SDS011;3104;50.348;7.620;2023-05-10T15:30:59;1.10;;;1.00;;
6145;SDS011;3104;50.348;7.620;2023-05-10T15:33:25;1.30;;;0.90;;
6145;SDS011;3104;50.348;7.620;2023-05-10T15:35:52;1.40;;;0.63;;
6145;SDS011;3104;50.348;7.620;2023-05-10T15:38:18;0.63;;;0.63;;
6145;SDS011;3104;50.348;7.620;2023-05-10T15:40:44;0.80;;;0.80;;
6145;SDS011;3104;50.348;7.620;2023-05-10T15:43:09;2.33;;;0.90;;
6145;SDS011;3104;50.348;7.620;2023-05-10T15:45:35;0.80;;;0.80;;
6145;SDS011;3104;50.348;7.620;2023-05-10T15:48:01;1.00;;;0.80;;
6145;SDS011;3104;50.348;7.620;2023-05-10T15:50:27;1.23;;;0.70;;
6145;SDS011;3104;50.348;7.620;2023-05-10T15:52:52;0.80;;;0.67;;
6145;SDS011;3104;50.348;7.620;2023-05-10T15:55:18;0.70;;;0.70;;
6145;SDS011;3104;50.348;7.620;2023-05-10T15:57:44;0.90;;;0.90;;
6145;SDS011;3104;50.348;7.620;2023-05-10T16:00:10;1.17;;;0.70;;